Latest Weather Observations for Roxby Downs

IDS60801

Issued at 4:41 pm CST Sunday 18 August 2019 (issued every 10 minutes, with the page automatically refreshed every 10 minutes)

About weather observations | Map of weather stations | Latest weather observations for SA | Other Formats
Station Details ID: 016096 Name: OLYMPIC DAM AERODROME Lat: -30.48 Lon: 136.88 Height: 98.5 m
Data from the previous 72 hours. | See also: Recent months at Roxby Downs
Date/Time
CST
Temp
°C
App
Temp
°C
Dew
Point
°C
Rel
Hum
%
Delta-T
°C
Wind Press
QNH
hPa
Press
MSL
hPa
Rain since
9am
mm
Dir  Spd
km/h
Gust
km/h
Spd
kts
Gust
kts
18/04:30pm 16.6 7.9 -3.5 25 8.0 WSW 33 50 18 27 1018.4 1018.4 0.0
18/04:29pm 16.7 8.2 -3.4 25 8.0 W 32 50 17 27 1018.5 1018.5 0.0
18/04:00pm 17.2 8.2 -3.0 25 8.2 WSW 35 48 19 26 1018.1 1018.1 0.0
18/03:30pm 17.5 8.4 -3.3 24 8.4 WSW 35 54 19 29 1017.8 1017.8 0.0
18/03:00pm 17.4 7.4 -4.5 22 8.6 W 39 57 21 31 1017.7 1017.7 0.0
18/02:30pm 17.4 8.8 -3.9 23 8.5 W 32 50 17 27 1017.8 1017.8 0.0
18/02:00pm 17.3 8.2 -4.0 23 8.5 W 35 57 19 31 1018.0 1018.0 0.0
18/01:53pm 17.5 8.6 -5.0 21 8.8 W 33 57 18 31 1017.9 1017.9 0.0
18/01:30pm 16.7 8.1 -2.9 26 7.9 W 33 50 18 27 1018.0 1018.0 0.0
18/01:00pm 16.8 7.7 -3.9 24 8.2 W 35 54 19 29 1018.2 1018.2 0.0
18/12:54pm 16.7 8.0 -3.4 25 8.1 W 33 54 18 29 1018.1 1018.1 0.0
18/12:30pm 16.6 8.1 -2.0 28 7.7 W 33 48 18 26 1018.4 1018.4 0.0
18/12:00pm 15.6 7.9 0.2 35 6.6 W 30 41 16 22 1018.7 1018.7 0.0
18/11:30am 15.4 8.5 0.4 36 6.4 W 26 44 14 24 1019.0 1019.0 0.0
18/11:00am 15.0 7.0 0.1 36 6.3 WSW 32 46 17 25 1019.2 1019.2 0.0
18/10:30am 14.8 7.4 1.7 41 5.7 WSW 30 41 16 22 1019.4 1019.4 0.0
18/10:00am 14.0 6.7 2.3 45 5.2 WSW 30 46 16 25 1019.4 1019.4 0.0
18/09:51am 13.8 6.9 2.4 46 5.0 WSW 28 46 15 25 1019.4 1019.4 0.0
18/09:30am 13.3 6.4 2.5 48 4.8 WSW 28 41 15 22 1019.3 1019.3 0.0
18/09:00am 12.9 6.5 3.0 51 4.4 W 26 39 14 21 1019.0 1019.0 0.0
18/08:30am 12.5 6.5 3.5 54 4.0 WSW 24 33 13 18 1018.8 1018.8 0.0
18/08:00am 12.0 6.5 4.0 58 3.6 WSW 22 32 12 17 1018.5 1018.5 0.0
18/07:30am 10.6 6.9 4.3 65 2.8 W 13 17 7 9 1018.0 1018.0 0.0
18/07:00am 11.0 6.6 4.7 65 2.9 WSW 17 24 9 13 1017.3 1017.3 0.0
18/06:30am 10.9 7.0 5.2 68 2.6 WSW 15 19 8 10 1016.9 1016.9 0.0
18/06:00am 10.4 7.2 5.0 69 2.5 WSW 11 13 6 7 1016.5 1016.5 0.0
18/05:30am 11.0 7.5 5.3 68 2.6 WSW 13 19 7 10 1016.1 1016.1 0.0
18/05:00am 11.5 7.2 5.4 66 2.8 WSW 17 24 9 13 1015.6 1015.7 0.0
18/04:30am 12.2 7.4 5.4 63 3.2 WSW 20 30 11 16 1015.2 1015.2 0.0
18/04:00am 12.7 6.3 5.4 61 3.4 SW 28 37 15 20 1015.1 1015.1 0.0
18/03:30am 12.8 7.5 5.0 59 3.6 SW 22 28 12 15 1015.0 1015.0 0.0
18/03:00am 13.3 7.2 5.0 57 3.9 SW 26 35 14 19 1014.6 1014.6 0.0
18/02:34am 13.8 6.5 4.4 53 4.3 SW 32 50 17 27 1014.6 1014.6 0.0
18/02:30am 14.0 6.5 4.6 53 4.4 SW 33 50 18 27 1014.6 1014.6 0.0
18/02:04am 14.6 8.1 4.6 51 4.7 SW 28 46 15 25 1014.5 1014.5 0.0
18/02:00am 14.6 8.1 4.6 51 4.7 SW 28 43 15 23 1014.5 1014.5 0.0
18/01:40am 15.3 8.1 5.0 50 4.9 SW 32 50 17 27 1014.2 1014.2 0.0
18/01:30am 15.6 8.2 5.2 50 5.0 SW 33 48 18 26 1014.0 1014.0 0.0
18/01:00am 16.7 9.1 3.7 42 6.1 SW 33 46 18 25 1013.7 1013.7 0.0
18/12:49am 17.2 12.2 1.2 34 7.1 W 17 43 9 23 1013.3 1013.3 0.0
18/12:30am 16.4 12.0 0.1 33 7.0 W 13 17 7 9 1013.0 1013.0 0.0
18/12:00am 14.3 10.2 -3.0 30 6.8 WNW 9 9 5 5 1012.8 1012.8 0.0
 
Date/Time
CST
Temp
°C
App
Temp
°C
Dew
Point
°C
Rel
Hum
%
Delta-T
°C
Wind Press
QNH
hPa
Press
MSL
hPa
Rain since
9am
mm
Dir  Spd
km/h
Gust
km/h
Spd
kts
Gust
kts
17/11:30pm 16.4 12.6 -0.8 31 7.3 WNW 9 11 5 6 1012.8 1012.8 0.0
17/11:00pm 17.2 13.3 -1.4 28 7.8 WNW 9 11 5 6 1012.7 1012.7 0.0
17/10:30pm 19.2 14.6 -1.3 25 8.8 WSW 13 17 7 9 1012.5 1012.5 0.0
17/10:00pm 21.0 14.9 -4.2 18 10.4 W 19 28 10 15 1012.5 1012.5 0.0
17/09:32pm 22.4 12.9 -7.3 13 11.7 NNW 35 57 19 31 1012.1 1012.1 0.0
17/09:30pm 22.4 12.2 -7.3 13 11.7 NNW 39 57 21 31 1012.3 1012.3 0.0
17/09:28pm 22.7 12.9 -7.1 13 11.8 NNW 37 57 20 31 1012.3 1012.3 0.0
17/09:21pm 23.0 15.6 -7.9 12 12.1 NW 24 54 13 29 1011.3 1011.3 0.0
17/09:12pm 19.2 12.6 -7.2 16 10.0 N 20 39 11 21 1012.2 1012.2 0.0
17/09:00pm 20.0 13.9 -7.4 15 10.5 NNE 17 20 9 11 1010.9 1010.9 0.0
17/08:30pm 20.9 14.4 -7.6 14 11.0 NNE 19 24 10 13 1011.1 1011.1 0.0
17/08:00pm 21.6 14.9 -8.0 13 11.4 NNE 20 28 11 15 1011.2 1011.2 0.0
17/07:30pm 22.0 15.4 -8.7 12 11.7 NNE 19 26 10 14 1011.4 1011.4 0.0
17/07:00pm 22.5 16.3 -9.4 11 12.0 NNE 17 24 9 13 1011.3 1011.3 0.0
17/06:30pm 23.4 16.7 -9.9 10 12.6 NNE 19 24 10 13 1011.1 1011.1 0.0
17/06:00pm 24.5 17.7 -9.1 10 13.0 NNE 20 28 11 15 1011.1 1011.1 0.0
17/05:30pm 25.6 17.4 -8.2 10 13.5 N 28 39 15 21 1011.2 1011.2 0.0
17/05:00pm 26.2 17.5 -9.1 9 13.9 N 30 41 16 22 1011.2 1011.2 0.0
17/04:30pm 26.6 17.6 -8.8 9 14.1 N 32 46 17 25 1011.2 1011.2 0.0
17/04:00pm 26.6 17.3 -10.3 8 14.3 N 33 44 18 24 1011.3 1011.3 0.0
17/03:30pm 26.8 17.7 -10.2 8 14.4 N 32 43 17 23 1011.6 1011.6 0.0
17/03:00pm 26.7 17.5 -8.8 9 14.2 N 33 52 18 28 1011.9 1011.9 0.0
17/02:53pm 26.8 17.8 -8.7 9 14.2 N 32 52 17 28 1012.0 1012.0 0.0
17/02:30pm 26.2 17.1 -7.8 10 13.7 N 33 43 18 23 1012.5 1012.5 0.0
17/02:00pm 25.8 16.9 -6.9 11 13.4 N 32 43 17 23 1013.0 1013.0 0.0
17/01:30pm 25.9 16.9 -8.0 10 13.6 N 32 41 17 22 1013.4 1013.4 0.0
17/01:00pm 25.3 17.4 -5.1 13 12.8 N 28 39 15 21 1014.1 1014.1 0.0
17/12:30pm 24.6 16.8 -3.7 15 12.2 N 28 39 15 21 1014.8 1014.8 0.0
17/12:00pm 23.7 16.0 -2.8 17 11.5 NNE 28 41 15 22 1015.3 1015.3 0.0
17/11:30am 22.0 16.7 3.2 29 9.0 NNE 20 30 11 16 1016.2 1016.2 0.0
17/11:00am 20.5 15.3 2.3 30 8.5 NNE 19 26 10 14 1016.5 1016.5 0.0
17/10:30am 19.4 15.0 4.7 38 7.1 NE 17 22 9 12 1016.9 1016.9 0.0
17/10:00am 18.5 14.4 6.0 44 6.2 NE 17 24 9 13 1017.0 1017.0 0.0
17/09:30am 16.5 13.2 6.6 52 4.9 ENE 13 17 7 9 1017.2 1017.2 0.0
17/09:00am 15.0 12.2 6.8 58 4.0 E 11 17 6 9 1017.4 1017.4 0.0
17/08:30am 13.8 11.4 6.9 63 3.4 E 9 17 5 9 1017.6 1017.6 0.0
17/08:00am 12.6 10.1 6.6 67 2.9 E 9 13 5 7 1017.4 1017.4 0.0
17/07:30am 11.1 8.8 5.8 70 2.5 SE 7 9 4 5 1017.3 1017.3 0.0
17/07:00am 10.8 8.7 6.0 72 2.2 ESE 6 9 3 5 1017.3 1017.3 0.0
17/06:59am 10.8 8.7 6.0 72 2.2 ESE 6 7 3 4 1017.3 1017.3 0.0
17/06:46am 10.5 8.2 5.7 72 2.2 SE 7 9 4 5 1017.3 1017.3 0.0
17/06:30am 10.4 7.7 5.8 73 2.1 SE 9 11 5 6 1017.2 1017.2 0.0
17/06:00am 9.9 7.2 5.5 74 2.0 SSE 9 11 5 6 1017.3 1017.3 0.0
17/05:30am 9.9 7.7 5.1 72 2.2 SSE 6 7 3 4 1017.4 1017.4 0.0
17/05:00am 10.5 9.4 5.1 69 2.5 CALM 0 6 0 3 1017.4 1017.4 0.0
17/04:30am 11.6 9.9 5.9 68 2.7 SE 4 9 2 5 1017.0 1017.0 0.0
17/04:00am 11.8 9.2 6.1 68 2.7 SSE 9 13 5 7 1017.3 1017.3 0.0
17/03:30am 11.8 9.8 6.1 68 2.7 SSE 6 9 3 5 1017.8 1017.8 0.0
17/03:00am 12.2 10.9 6.0 66 2.9 S 2 6 1 3 1018.2 1018.2 0.0
17/02:30am 12.5 10.3 6.1 65 3.0 SSE 7 9 4 5 1018.2 1018.2 0.0
17/02:00am 13.0 10.5 6.4 64 3.2 SSE 9 11 5 6 1018.2 1018.2 0.0
17/01:30am 13.2 11.0 6.3 63 3.3 SE 7 9 4 5 1018.5 1018.5 0.0
17/01:00am 13.8 11.3 6.7 62 3.4 SSE 9 11 5 6 1018.8 1018.8 0.0
17/12:30am 14.2 11.4 6.8 61 3.6 S 11 15 6 8 1019.1 1019.1 0.0
17/12:00am 14.4 12.0 7.0 61 3.6 SSW 9 11 5 6 1019.2 1019.2 0.0
 
Date/Time
CST
Temp
°C
App
Temp
°C
Dew
Point
°C
Rel
Hum
%
Delta-T
°C
Wind Press
QNH
hPa
Press
MSL
hPa
Rain since
9am
mm
Dir  Spd
km/h
Gust
km/h
Spd
kts
Gust
kts
16/11:30pm 14.4 12.5 6.7 60 3.7 S 6 7 3 4 1019.2 1019.2 0.0
16/11:00pm 14.8 12.0 6.9 59 3.9 SSE 11 13 6 7 1019.0 1019.0 0.0
16/10:30pm 15.2 12.8 7.0 58 4.0 SSW 9 13 5 7 1019.5 1019.5 0.0
16/10:00pm 15.5 12.7 7.0 57 4.2 S 11 13 6 7 1019.4 1019.4 0.0
16/09:30pm 15.7 13.7 7.2 57 4.2 SSE 7 11 4 6 1019.5 1019.5 0.0
16/09:00pm 15.9 12.8 7.1 56 4.4 SSE 13 17 7 9 1019.4 1019.4 0.0
16/08:30pm 16.2 13.1 7.2 55 4.5 SSE 13 17 7 9 1019.7 1019.7 0.0
16/08:00pm 16.5 13.4 7.4 55 4.6 SSE 13 17 7 9 1019.6 1019.6 0.0
16/07:30pm 16.7 12.9 7.6 55 4.6 S 17 20 9 11 1019.9 1019.9 0.0
16/07:00pm 16.9 13.2 8.1 56 4.5 SSE 17 22 9 12 1019.2 1019.2 0.0
16/06:30pm 17.3 13.7 8.2 55 4.7 S 17 20 9 11 1019.2 1019.2 0.0
16/06:00pm 17.8 14.6 8.4 54 4.8 S 15 22 8 12 1019.1 1019.1 0.0
16/05:30pm 19.0 15.0 8.4 50 5.5 SSW 19 28 10 15 1019.1 1019.1 0.0
16/05:00pm 19.7 15.4 7.8 46 6.1 SSW 20 28 11 15 1018.7 1018.7 0.0
16/04:30pm 20.8 17.0 7.4 42 6.9 SSW 17 22 9 12 1018.6 1018.6 0.0
16/04:00pm 20.3 16.8 7.3 43 6.7 S 15 20 8 11 1018.2 1018.2 0.0
16/03:30pm 20.4 17.3 7.4 43 6.7 S 13 20 7 11 1018.3 1018.3 0.0
16/03:00pm 19.8 16.2 8.2 47 6.0 SSE 17 20 9 11 1018.4 1018.4 0.0
16/02:30pm 19.9 16.4 8.6 48 5.9 S 17 22 9 12 1018.4 1018.4 0.0
16/02:00pm 19.7 16.1 8.4 48 5.9 S 17 22 9 12 1018.5 1018.5 0.0
16/01:30pm 20.0 15.8 8.4 47 6.1 S 20 26 11 14 1018.7 1018.7 0.0
16/01:00pm 20.4 16.2 7.4 43 6.7 SSW 19 24 10 13 1018.9 1018.9 0.0
16/12:30pm 21.3 18.2 5.6 36 7.8 S 11 17 6 9 1019.1 1019.1 0.0
16/12:00pm 21.0 18.3 5.8 37 7.6 SSE 9 19 5 10 1019.3 1019.3 0.0
16/11:30am 20.0 16.0 4.9 37 7.4 S 15 20 8 11 1019.7 1019.7 0.0
16/11:00am 19.1 14.4 5.2 40 6.8 SSW 19 22 10 12 1019.8 1019.8 0.0
16/10:30am 19.6 16.8 5.3 39 7.0 S 9 15 5 8 1020.1 1020.1 0.0
16/10:00am 18.3 15.2 5.5 43 6.3 SSW 11 15 6 8 1020.0 1020.0 0.0
16/09:30am 16.7 13.7 -1.9 28 7.7 SW 4 7 2 4 1020.0 1020.0 0.0
16/09:00am 15.7 13.2 -3.7 26 7.6 CALM 0 0 0 0 1019.7 1019.7 0.0
16/08:30am 13.7 10.2 -5.9 25 7.2 WSW 4 7 2 4 1019.5 1019.5 0.0
16/08:00am 10.9 8.2 -5.5 31 5.9 CALM 0 11 0 6 1019.5 1019.5 0.0
16/07:30am 9.8 5.9 -6.1 32 5.5 NNE 6 9 3 5 1019.1 1019.1 0.0
16/07:00am 8.1 3.7 -6.0 36 4.8 NE 9 9 5 5 1018.6 1018.6 0.0
16/06:30am 7.2 3.1 -6.5 37 4.6 NNE 7 9 4 5 1018.6 1018.6 0.0
16/06:00am 6.9 4.2 -6.4 38 4.4 CALM 0 0 0 0 1018.5 1018.5 0.0
16/05:30am 7.0 3.1 -6.7 37 4.5 NW 6 7 3 4 1018.5 1018.5 0.0
16/05:00am 7.4 3.3 -6.7 36 4.7 NNE 7 9 4 5 1018.3 1018.3 0.0
16/04:30am 8.6 4.1 -6.4 34 5.1 NNE 9 11 5 6 1018.3 1018.3 0.0
16/04:00am 9.4 5.3 -6.4 32 5.4 NNW 7 9 4 5 1018.6 1018.6 0.0
16/03:30am 11.0 6.6 -5.9 30 6.0 W 9 15 5 8 1018.8 1018.8 0.0
16/03:00am 11.8 6.3 -5.2 30 6.2 SW 15 22 8 12 1018.5 1018.5 0.0
16/02:30am 12.0 7.3 -5.5 29 6.3 NNE 11 13 6 7 1017.4 1017.4 0.0
16/02:00am 12.4 7.2 -6.0 27 6.6 NNE 13 15 7 8 1017.3 1017.3 0.0
16/01:30am 13.4 7.8 -6.2 25 7.1 NNE 15 19 8 10 1017.4 1017.4 0.0
16/01:00am 13.5 8.3 -6.6 24 7.3 NNE 13 15 7 8 1017.4 1017.4 0.0
16/12:30am 14.6 8.6 -6.3 23 7.7 N 17 22 9 12 1017.6 1017.6 0.0
16/12:00am 14.8 8.9 -6.1 23 7.7 N 17 24 9 13 1017.4 1017.4 0.0
 
Date/Time
CST
Temp
°C
App
Temp
°C
Dew
Point
°C
Rel
Hum
%
Delta-T
°C
Wind Press
QNH
hPa
Press
MSL
hPa
Rain since
9am
mm
Dir  Spd
km/h
Gust
km/h
Spd
kts
Gust
kts
15/11:30pm 14.9 8.4 -5.5 24 7.7 NNE 20 24 11 13 1017.3 1017.3 0.0
15/11:00pm 15.2 8.9 -5.8 23 7.9 NNE 19 24 10 13 1017.6 1017.6 0.0
15/10:30pm 15.5 9.0 -5.5 23 7.9 NNE 20 28 11 15 1018.0 1018.0 0.0
15/10:00pm 15.6 9.7 -5.4 23 8.0 NNE 17 22 9 12 1018.4 1018.4 0.0
15/09:30pm 15.8 9.6 -5.3 23 8.0 NNE 19 24 10 13 1018.6 1018.6 0.0
15/09:00pm 16.2 9.9 -5.5 22 8.3 NNE 19 24 10 13 1018.7 1018.7 0.0
15/08:30pm 16.3 10.4 -5.4 22 8.3 NNE 17 20 9 11 1018.6 1018.6 0.0
15/08:00pm 16.6 11.5 -5.2 22 8.4 NNE 13 17 7 9 1018.6 1018.6 0.0
15/07:30pm 17.1 12.0 -5.4 21 8.7 NNE 13 15 7 8 1018.6 1018.6 0.0
15/07:00pm 17.8 13.0 -6.1 19 9.2 NNE 11 11 6 6 1018.4 1018.4 0.0
15/06:30pm 19.5 14.4 -9.6 13 10.6 N 11 13 6 7 1018.2 1018.2 0.0
15/06:00pm 21.2 15.3 -9.3 12 11.3 N 15 20 8 11 1017.9 1017.9 0.0
15/05:30pm 22.4 15.1 -10.7 10 12.1 N 22 32 12 17 1017.8 1017.8 0.0
15/05:00pm 22.9 15.3 -10.3 10 12.4 NNW 24 32 13 17 1017.7 1017.7 0.0

Other formats

Comma delimited format used in spreadsheet applications
http://www.bom.gov.au/fwo/IDS60801/IDS60801.95658.axf

JavaScript Object Notation format (JSON) in row-major order
http://www.bom.gov.au/fwo/IDS60801/IDS60801.95658.json

Data quality

Most of these data are generated automatically and are frequently updated. Quality checks on data are not normally performed. It is possible for incorrect values to appear. Refer to information at About Latest Weather Observations and please check the disclaimer before using these data.